createdAt,value
2017-10-07T00:00:07.605Z,99.20
2017-10-07T00:01:10.079Z,99.20
2017-10-07T00:02:12.557Z,99.10
2017-10-07T00:03:15.059Z,99.10
2017-10-07T00:04:17.592Z,99.10
2017-10-07T00:05:20.079Z,99.10
2017-10-07T00:06:22.810Z,99.10
2017-10-07T00:07:25.295Z,99.00
2017-10-07T00:08:27.786Z,99.00
2017-10-07T00:09:31.043Z,99.10
2017-10-07T00:10:33.511Z,99.00
2017-10-07T00:11:36.024Z,99.00
2017-10-07T00:12:38.542Z,99.10
2017-10-07T00:13:41.033Z,99.10
2017-10-07T00:14:43.495Z,99.10
2017-10-07T00:15:45.982Z,99.10
2017-10-07T00:16:49.239Z,99.10
2017-10-07T00:17:51.719Z,99.10
2017-10-07T00:18:54.180Z,99.10
2017-10-07T00:19:56.631Z,99.10
2017-10-07T00:20:59.120Z,99.10
2017-10-07T00:22:02.521Z,99.10
2017-10-07T00:23:05.002Z,99.00
2017-10-07T00:24:07.482Z,99.00
2017-10-07T00:25:09.982Z,99.00
2017-10-07T00:26:12.438Z,99.00
2017-10-07T00:27:14.952Z,99.10
2017-10-07T00:28:17.442Z,99.30
2017-10-07T00:29:19.942Z,99.30
2017-10-07T00:30:23.207Z,99.00
2017-10-07T00:31:26.176Z,99.00
2017-10-07T00:32:28.708Z,99.00
2017-10-07T00:33:31.300Z,99.00
2017-10-07T00:34:33.787Z,99.00
2017-10-07T00:35:37.019Z,99.00
2017-10-07T00:36:39.482Z,99.00
2017-10-07T00:37:41.999Z,99.00
2017-10-07T00:38:44.516Z,99.00
2017-10-07T00:39:47.789Z,99.00
2017-10-07T00:40:50.337Z,99.00
2017-10-07T00:41:52.808Z,99.00
2017-10-07T00:42:56.039Z,98.90
2017-10-07T00:43:59.296Z,98.90
2017-10-07T00:45:02.545Z,98.90
2017-10-07T00:46:04.998Z,98.90
2017-10-07T00:47:07.483Z,98.90
2017-10-07T00:48:10.746Z,98.90
2017-10-07T00:49:13.232Z,98.90
2017-10-07T00:50:15.719Z,99.20
2017-10-07T00:51:18.187Z,99.00
2017-10-07T00:52:21.415Z,98.70
2017-10-07T00:53:23.909Z,98.70
2017-10-07T00:54:26.404Z,98.70
2017-10-07T00:55:28.939Z,98.80
2017-10-07T00:56:31.474Z,98.70
2017-10-07T00:57:33.942Z,98.70
2017-10-07T00:58:36.424Z,98.60
2017-10-07T00:59:38.950Z,98.70
2017-10-07T01:00:41.422Z,98.70
2017-10-07T01:01:43.982Z,99.00
2017-10-07T01:02:46.442Z,98.70
2017-10-07T01:03:48.930Z,98.70
2017-10-07T01:04:51.483Z,98.60
2017-10-07T01:05:53.959Z,98.70
2017-10-07T01:06:57.186Z,98.60
2017-10-07T01:07:59.659Z,98.60
2017-10-07T01:09:02.116Z,98.60
2017-10-07T01:10:04.651Z,98.70
2017-10-07T01:11:07.111Z,98.70
2017-10-07T01:12:10.414Z,98.70
2017-10-07T01:13:12.922Z,98.70
2017-10-07T01:14:15.386Z,98.80
2017-10-07T01:15:17.854Z,98.80
2017-10-07T01:16:20.349Z,98.80
2017-10-07T01:17:23.564Z,99.00
2017-10-07T01:18:26.067Z,98.70
2017-10-07T01:19:28.595Z,98.70
2017-10-07T01:20:31.051Z,98.70
2017-10-07T01:21:33.534Z,98.70
2017-10-07T01:22:36.003Z,98.80
2017-10-07T01:23:38.463Z,98.80
2017-10-07T01:24:40.939Z,98.80
2017-10-07T01:25:43.439Z,98.90
2017-10-07T01:26:45.909Z,98.90
2017-10-07T01:27:48.354Z,98.90
2017-10-07T01:28:50.918Z,99.20
2017-10-07T01:29:53.372Z,98.90
2017-10-07T01:30:56.611Z,99.20
2017-10-07T01:31:59.090Z,98.90
2017-10-07T01:33:01.585Z,99.00
2017-10-07T01:34:04.036Z,98.90
2017-10-07T01:35:06.615Z,99.00
2017-10-07T01:36:09.084Z,98.90
2017-10-07T01:37:11.577Z,98.90
2017-10-07T01:38:14.843Z,98.80
2017-10-07T01:39:18.067Z,98.80
2017-10-07T01:40:21.347Z,98.80
2017-10-07T01:41:23.818Z,98.80
2017-10-07T01:42:26.322Z,98.80
2017-10-07T01:43:28.794Z,98.80
2017-10-07T01:44:31.280Z,99.00
2017-10-07T01:45:33.780Z,98.70
2017-10-07T01:46:36.296Z,98.70
2017-10-07T01:47:38.807Z,98.70
2017-10-07T01:48:41.271Z,98.70
2017-10-07T01:49:43.754Z,98.70
2017-10-07T01:50:46.216Z,98.70
2017-10-07T01:51:48.714Z,98.70
2017-10-07T01:52:51.235Z,98.70
2017-10-07T01:53:53.706Z,98.60
2017-10-07T01:54:56.163Z,98.70
2017-10-07T01:55:59.407Z,98.70
2017-10-07T01:57:02.629Z,98.70
2017-10-07T01:58:05.117Z,98.70
2017-10-07T01:59:07.573Z,98.70
2017-10-07T02:00:10.174Z,98.80
2017-10-07T02:01:12.662Z,98.70
2017-10-07T02:02:15.960Z,98.80
2017-10-07T02:03:18.419Z,98.80
2017-10-07T02:04:21.654Z,98.90
2017-10-07T02:05:24.882Z,99.20
2017-10-07T02:06:27.371Z,98.90
2017-10-07T02:07:29.903Z,98.80
2017-10-07T02:08:32.376Z,98.80
2017-10-07T02:09:35.614Z,98.80
2017-10-07T02:10:38.835Z,98.80
2017-10-07T02:11:41.404Z,98.80
2017-10-07T02:12:43.890Z,98.80
2017-10-07T02:13:46.353Z,98.80
2017-10-07T02:14:48.830Z,98.80
2017-10-07T02:15:51.287Z,98.70
2017-10-07T02:16:54.538Z,98.80
2017-10-07T02:17:57.762Z,98.80
2017-10-07T02:19:00.277Z,98.80
2017-10-07T02:20:02.745Z,98.90
2017-10-07T02:21:05.236Z,98.90
2017-10-07T02:22:08.474Z,98.90
2017-10-07T02:23:10.936Z,98.90
2017-10-07T02:24:13.454Z,98.80
2017-10-07T02:25:16.675Z,98.90
2017-10-07T02:26:19.146Z,98.90
2017-10-07T02:27:21.607Z,98.80
2017-10-07T02:28:24.093Z,98.80
2017-10-07T02:29:26.590Z,98.80
2017-10-07T02:30:29.880Z,98.80
2017-10-07T02:31:32.371Z,98.80
2017-10-07T02:32:35.718Z,98.80
2017-10-07T02:33:38.196Z,98.80
2017-10-07T02:34:40.874Z,98.80
2017-10-07T02:35:43.372Z,98.90
2017-10-07T02:36:46.631Z,98.90
2017-10-07T02:37:49.100Z,98.80
2017-10-07T02:38:51.554Z,98.80
2017-10-07T02:39:54.825Z,98.90
2017-10-07T02:40:57.336Z,98.70
2017-10-07T02:42:00.581Z,98.70
2017-10-07T02:43:03.813Z,98.70
2017-10-07T02:44:07.027Z,99.00
2017-10-07T02:45:09.512Z,98.70
2017-10-07T02:46:12.007Z,98.60
2017-10-07T02:47:16.151Z,98.60
2017-10-07T02:48:18.610Z,98.60
2017-10-07T02:49:21.088Z,98.60
2017-10-07T02:50:23.552Z,98.70
2017-10-07T02:51:26.838Z,98.70
2017-10-07T02:52:29.299Z,98.70
2017-10-07T02:53:31.758Z,98.60
2017-10-07T02:54:34.228Z,98.60
2017-10-07T02:55:36.697Z,98.70
2017-10-07T02:56:39.968Z,98.70
2017-10-07T02:57:42.450Z,98.60
2017-10-07T02:58:45.766Z,98.70
2017-10-07T02:59:48.218Z,98.70
2017-10-07T03:00:51.471Z,98.20
2017-10-07T03:01:54.734Z,98.20
2017-10-07T03:02:57.263Z,98.10
2017-10-07T03:03:59.754Z,98.10
2017-10-07T03:05:03.015Z,98.50
2017-10-07T03:06:06.257Z,98.20
2017-10-07T03:07:08.772Z,98.20
2017-10-07T03:08:12.007Z,98.20
2017-10-07T03:09:14.467Z,98.20
2017-10-07T03:10:16.946Z,98.10
2017-10-07T03:11:19.408Z,98.10
2017-10-07T03:12:21.970Z,98.10
2017-10-07T03:13:24.435Z,98.10
2017-10-07T03:14:27.670Z,98.20
2017-10-07T03:15:30.963Z,97.90
2017-10-07T03:16:33.454Z,98.40
2017-10-07T03:17:36.685Z,98.10
2017-10-07T03:18:39.151Z,98.00
2017-10-07T03:19:41.621Z,98.00
2017-10-07T03:20:44.103Z,98.10
2017-10-07T03:21:46.570Z,98.00
2017-10-07T03:22:49.043Z,98.00
2017-10-07T03:23:51.508Z,98.00
2017-10-07T03:24:53.984Z,98.10
2017-10-07T03:25:56.484Z,98.10
2017-10-07T03:26:59.742Z,98.10
2017-10-07T03:28:02.204Z,98.10
2017-10-07T03:29:04.671Z,98.00
2017-10-07T03:30:07.158Z,97.90
2017-10-07T03:31:09.681Z,98.10
2017-10-07T03:32:12.139Z,97.90
2017-10-07T03:33:14.619Z,97.90
2017-10-07T03:34:17.095Z,97.80
2017-10-07T03:35:20.337Z,97.90
2017-10-07T03:36:22.828Z,97.80
2017-10-07T03:37:25.305Z,97.80
2017-10-07T03:38:28.550Z,97.70
2017-10-07T03:39:31.781Z,97.70
2017-10-07T03:40:35.052Z,97.80
2017-10-07T03:41:37.525Z,97.70
2017-10-07T03:42:40.005Z,97.70
2017-10-07T03:43:42.464Z,97.70
2017-10-07T03:44:44.947Z,97.70
2017-10-07T03:45:47.416Z,97.70
2017-10-07T03:46:49.908Z,97.60
2017-10-07T03:47:52.759Z,97.70
2017-10-07T03:48:55.274Z,97.80
2017-10-07T03:49:57.726Z,97.70
2017-10-07T03:51:00.198Z,97.70
2017-10-07T03:52:02.682Z,97.70
2017-10-07T03:53:05.151Z,97.70
2017-10-07T03:54:07.646Z,97.70
2017-10-07T03:55:10.879Z,98.10
2017-10-07T03:56:13.330Z,97.80
2017-10-07T03:57:16.593Z,97.80
2017-10-07T03:58:19.065Z,97.80
2017-10-07T03:59:21.549Z,97.70
2017-10-07T04:00:24.015Z,97.60
2017-10-07T04:01:28.014Z,97.70
2017-10-07T04:02:31.246Z,97.70
2017-10-07T04:03:34.477Z,97.70
2017-10-07T04:04:37.702Z,97.90
2017-10-07T04:05:40.170Z,97.70
2017-10-07T04:06:42.680Z,97.60
2017-10-07T04:07:45.944Z,97.60
2017-10-07T04:08:48.417Z,97.60
2017-10-07T04:09:50.886Z,97.60
2017-10-07T04:10:53.342Z,97.60
2017-10-07T04:11:55.846Z,97.60
2017-10-07T04:12:58.362Z,97.50
2017-10-07T04:14:00.818Z,97.40
2017-10-07T04:15:03.318Z,97.40
2017-10-07T04:16:05.786Z,97.50
2017-10-07T04:17:08.258Z,97.50
2017-10-07T04:18:10.729Z,97.50
2017-10-07T04:19:13.305Z,97.50
2017-10-07T04:20:15.763Z,97.60
2017-10-07T04:21:18.284Z,97.60
2017-10-07T04:22:20.755Z,97.60
2017-10-07T04:23:23.242Z,97.60
2017-10-07T04:24:25.759Z,97.60
2017-10-07T04:25:28.239Z,97.60
2017-10-07T04:26:31.489Z,97.40
2017-10-07T04:27:34.738Z,97.30
2017-10-07T04:28:37.213Z,97.30
2017-10-07T04:29:39.700Z,97.30
2017-10-07T04:30:42.154Z,97.30
2017-10-07T04:31:44.624Z,97.30
2017-10-07T04:32:47.887Z,97.30
2017-10-07T04:33:50.405Z,97.30
2017-10-07T04:34:53.624Z,97.20
2017-10-07T04:35:56.191Z,97.20
2017-10-07T04:36:58.755Z,97.30
2017-10-07T04:38:01.331Z,97.30
2017-10-07T04:39:03.795Z,97.30
2017-10-07T04:40:06.259Z,97.30
2017-10-07T04:41:09.527Z,97.50
2017-10-07T04:42:12.775Z,97.50
2017-10-07T04:43:15.259Z,97.50
2017-10-07T04:44:17.749Z,97.50
2017-10-07T04:45:20.234Z,97.60
2017-10-07T04:46:23.468Z,97.60
2017-10-07T04:47:26.695Z,97.60
2017-10-07T04:48:29.967Z,97.80
2017-10-07T04:49:32.523Z,97.70
2017-10-07T04:50:35.095Z,97.80
2017-10-07T04:51:37.534Z,97.90
2017-10-07T04:52:40.772Z,98.00
2017-10-07T04:53:43.995Z,98.10
2017-10-07T04:54:46.459Z,98.10
2017-10-07T04:55:48.955Z,98.50
2017-10-07T04:56:51.439Z,98.20
2017-10-07T04:57:53.936Z,98.30
2017-10-07T04:58:56.447Z,98.30
2017-10-07T04:59:59.683Z,98.30
2017-10-07T05:01:02.915Z,98.20
2017-10-07T05:02:06.164Z,98.50
2017-10-07T05:03:09.444Z,98.20
2017-10-07T05:04:11.968Z,98.20
2017-10-07T05:05:14.439Z,98.20
2017-10-07T05:06:16.914Z,98.30
2017-10-07T05:07:19.379Z,98.30
2017-10-07T05:08:21.852Z,98.40
2017-10-07T05:09:24.471Z,98.50
2017-10-07T05:10:27.699Z,98.50
2017-10-07T05:11:30.941Z,98.60
2017-10-07T05:12:33.424Z,98.50
2017-10-07T05:13:35.894Z,98.70
2017-10-07T05:14:39.127Z,98.60
2017-10-07T05:15:41.681Z,98.60
2017-10-07T05:16:44.134Z,98.60
2017-10-07T05:17:46.627Z,98.60
2017-10-07T05:18:49.192Z,98.90
2017-10-07T05:19:51.745Z,98.60
2017-10-07T05:20:54.313Z,98.60
2017-10-07T05:21:56.837Z,98.50
2017-10-07T05:22:59.309Z,98.50
2017-10-07T05:24:01.776Z,98.60
2017-10-07T05:25:05.036Z,98.60
2017-10-07T05:26:07.601Z,98.60
2017-10-07T05:27:10.075Z,98.60
2017-10-07T05:28:12.888Z,98.60
2017-10-07T05:29:16.174Z,98.90
2017-10-07T05:30:18.646Z,98.50
2017-10-07T05:31:22.611Z,98.50
2017-10-07T05:32:25.071Z,98.40
2017-10-07T05:33:27.634Z,98.70
2017-10-07T05:34:30.416Z,98.50
2017-10-07T05:35:33.651Z,98.40
2017-10-07T05:36:36.911Z,98.40
2017-10-07T05:37:39.396Z,98.40
2017-10-07T05:38:41.874Z,98.40
2017-10-07T05:39:44.398Z,98.30
2017-10-07T05:40:46.874Z,98.40
2017-10-07T05:41:49.338Z,98.40
2017-10-07T05:42:51.806Z,98.40
2017-10-07T05:43:54.290Z,98.20
2017-10-07T05:44:56.778Z,98.10
2017-10-07T05:46:00.024Z,98.20
2017-10-07T05:47:03.266Z,98.50
2017-10-07T05:48:06.550Z,98.20
2017-10-07T05:49:09.063Z,98.10
2017-10-07T05:50:11.581Z,98.10
2017-10-07T05:51:14.822Z,98.10
2017-10-07T05:52:18.091Z,98.10
2017-10-07T05:53:20.571Z,98.10
2017-10-07T05:54:23.813Z,98.00
2017-10-07T05:55:26.340Z,98.00
2017-10-07T05:56:28.823Z,98.00
2017-10-07T05:57:31.293Z,98.10
2017-10-07T05:58:34.524Z,97.90
2017-10-07T05:59:37.000Z,97.90
2017-10-07T06:00:39.501Z,98.10
2017-10-07T06:01:42.755Z,98.00
2017-10-07T06:02:45.219Z,98.00
2017-10-07T06:03:47.681Z,97.80
2017-10-07T06:04:51.012Z,98.00
2017-10-07T06:05:53.477Z,97.90
2017-10-07T06:06:55.970Z,98.10
2017-10-07T06:07:59.211Z,98.00
2017-10-07T06:09:02.484Z,97.80
2017-10-07T06:10:04.979Z,97.80
2017-10-07T06:11:08.204Z,97.80
2017-10-07T06:12:10.675Z,97.80
2017-10-07T06:13:13.144Z,97.90
2017-10-07T06:14:15.598Z,97.80
2017-10-07T06:15:18.860Z,97.90
2017-10-07T06:16:22.075Z,97.80
2017-10-07T06:17:24.535Z,97.80
2017-10-07T06:18:27.029Z,97.90
2017-10-07T06:19:29.522Z,98.00
2017-10-07T06:20:32.021Z,97.70
2017-10-07T06:21:34.507Z,97.70
2017-10-07T06:22:37.762Z,97.80
2017-10-07T06:23:40.994Z,97.70
2017-10-07T06:24:44.256Z,97.80
2017-10-07T06:25:46.734Z,97.80
2017-10-07T06:26:49.210Z,98.00
2017-10-07T06:27:51.707Z,97.70
2017-10-07T06:28:54.944Z,97.90
2017-10-07T06:29:57.414Z,97.90
2017-10-07T06:30:59.877Z,97.80
2017-10-07T06:32:02.352Z,97.40
2017-10-07T06:33:04.875Z,97.40
2017-10-07T06:34:07.381Z,97.50
2017-10-07T06:35:10.647Z,97.50
2017-10-07T06:36:13.147Z,97.50
2017-10-07T06:37:15.611Z,97.40
2017-10-07T06:38:18.091Z,97.40
2017-10-07T06:39:21.327Z,97.70
2017-10-07T06:42:06.299Z,97.20
2017-10-07T06:43:09.563Z,97.40
2017-10-07T06:44:12.087Z,97.40
2017-10-07T06:45:15.303Z,97.70
2017-10-07T06:46:18.561Z,97.70
2017-10-07T06:47:21.798Z,97.70
2017-10-07T06:48:25.148Z,97.80
2017-10-07T06:49:28.390Z,97.80
2017-10-07T06:50:31.614Z,97.50
2017-10-07T06:51:34.081Z,97.50
2017-10-07T06:52:36.543Z,97.60
2017-10-07T06:53:39.108Z,97.80
2017-10-07T06:54:42.622Z,97.60
2017-10-07T06:55:45.090Z,97.60
2017-10-07T06:56:48.335Z,97.60
2017-10-07T06:57:51.571Z,97.80
2017-10-07T06:58:54.138Z,97.80
2017-10-07T06:59:57.364Z,97.80
2017-10-07T07:00:59.839Z,97.80
2017-10-07T07:02:03.115Z,97.40
2017-10-07T07:03:05.587Z,97.40
2017-10-07T07:04:08.820Z,97.50
2017-10-07T07:05:11.724Z,97.40
2017-10-07T07:06:14.204Z,97.30
2017-10-07T07:07:16.672Z,97.40
2017-10-07T07:08:19.219Z,97.40
2017-10-07T07:09:21.704Z,97.50
2017-10-07T07:10:24.939Z,97.80
2017-10-07T07:11:28.167Z,97.20
2017-10-07T07:12:30.623Z,97.20
2017-10-07T07:13:33.147Z,97.30
2017-10-07T07:14:35.639Z,97.30
2017-10-07T07:15:38.207Z,97.30
2017-10-07T07:16:40.726Z,97.60
2017-10-07T07:17:43.212Z,97.60
2017-10-07T07:18:45.982Z,97.10
2017-10-07T07:19:49.255Z,97.30
2017-10-07T07:20:51.760Z,97.30
2017-10-07T07:21:54.216Z,97.00
2017-10-07T07:22:56.678Z,97.00
2017-10-07T07:23:59.139Z,97.00
2017-10-07T07:25:01.649Z,97.00
2017-10-07T07:26:04.103Z,97.00
2017-10-07T07:27:06.560Z,96.90
2017-10-07T07:28:09.075Z,96.90
2017-10-07T07:29:11.543Z,97.20
2017-10-07T07:30:14.100Z,97.40
2017-10-07T07:31:16.564Z,97.30
2017-10-07T07:32:19.032Z,97.30
2017-10-07T07:33:21.510Z,97.10
2017-10-07T07:34:23.986Z,96.90
2017-10-07T07:35:26.482Z,96.80
2017-10-07T07:36:29.715Z,96.60
2017-10-07T07:37:32.959Z,96.30
2017-10-07T07:38:35.425Z,96.30
2017-10-07T07:39:37.911Z,96.40
2017-10-07T07:40:41.204Z,96.40
2017-10-07T07:41:43.671Z,96.40
2017-10-07T07:42:46.139Z,96.20
2017-10-07T07:43:48.701Z,96.30
2017-10-07T07:44:51.294Z,96.40
2017-10-07T07:45:53.799Z,96.40
2017-10-07T07:46:57.041Z,96.70
2017-10-07T07:48:00.296Z,96.40
2017-10-07T07:49:02.766Z,96.30
2017-10-07T07:50:05.378Z,96.20
2017-10-07T07:51:07.868Z,96.20
2017-10-07T07:52:10.342Z,96.20
2017-10-07T07:53:12.927Z,96.40
2017-10-07T07:54:15.409Z,96.40
2017-10-07T07:55:17.881Z,96.30
2017-10-07T07:56:20.387Z,96.30
2017-10-07T07:57:23.633Z,96.10
2017-10-07T07:58:26.887Z,96.40
2017-10-07T07:59:29.453Z,96.30
2017-10-07T08:00:31.911Z,96.20
2017-10-07T08:01:35.194Z,95.90
2017-10-07T08:02:37.656Z,95.90
2017-10-07T08:03:40.126Z,95.90
2017-10-07T08:04:42.590Z,95.70
2017-10-07T08:05:45.055Z,95.70
2017-10-07T08:06:48.312Z,96.10
2017-10-07T08:07:50.792Z,96.10
2017-10-07T08:08:53.263Z,96.20
2017-10-07T08:09:55.757Z,95.80
2017-10-07T08:10:58.221Z,96.20
2017-10-07T08:12:00.733Z,96.10
2017-10-07T08:13:03.979Z,95.70
2017-10-07T08:14:06.463Z,95.70
2017-10-07T08:15:08.941Z,95.70
2017-10-07T08:16:11.413Z,95.50
2017-10-07T08:17:13.916Z,95.40
2017-10-07T08:18:16.391Z,95.20
2017-10-07T08:19:19.687Z,95.40
2017-10-07T08:20:22.147Z,95.30
2017-10-07T08:21:25.378Z,95.40
2017-10-07T08:22:27.917Z,95.20
2017-10-07T08:23:30.398Z,94.70
2017-10-07T08:24:32.863Z,94.70
2017-10-07T08:25:35.464Z,94.10
2017-10-07T08:26:38.096Z,93.70
2017-10-07T08:27:40.616Z,93.60
2017-10-07T08:28:43.796Z,94.00
2017-10-07T08:29:47.078Z,93.00
2017-10-07T08:30:49.556Z,93.00
2017-10-07T08:31:52.074Z,93.10
2017-10-07T08:32:54.604Z,93.20
2017-10-07T08:33:57.070Z,93.20
2017-10-07T08:34:59.540Z,93.50
2017-10-07T08:36:02.051Z,93.50
2017-10-07T08:37:04.533Z,93.40
2017-10-07T08:38:07.042Z,93.20
2017-10-07T08:39:10.280Z,93.40
2017-10-07T08:40:13.523Z,93.90
2017-10-07T08:41:15.983Z,93.60
2017-10-07T08:42:18.496Z,93.30
2017-10-07T08:43:21.003Z,93.70
2017-10-07T08:44:24.243Z,93.80
2017-10-07T08:45:27.686Z,93.50
2017-10-07T08:46:30.959Z,93.10
2017-10-07T08:47:33.431Z,93.10
2017-10-07T08:48:35.923Z,93.40
2017-10-07T08:49:38.405Z,93.30
2017-10-07T08:50:41.647Z,92.90
2017-10-07T08:51:44.883Z,93.10
2017-10-07T08:52:47.369Z,93.10
2017-10-07T08:53:49.914Z,92.50
2017-10-07T08:54:52.390Z,92.70
2017-10-07T08:55:54.939Z,92.80
2017-10-07T08:56:57.440Z,92.90
2017-10-07T08:57:59.943Z,92.20
2017-10-07T08:59:03.181Z,92.00
2017-10-07T09:00:06.412Z,92.00
2017-10-07T09:01:08.944Z,92.00
2017-10-07T09:02:11.425Z,92.50
2017-10-07T09:03:13.882Z,91.80
2017-10-07T09:04:16.342Z,91.50
2017-10-07T09:05:18.808Z,91.10
2017-10-07T09:06:21.319Z,91.20
2017-10-07T09:07:23.775Z,91.00
2017-10-07T09:08:26.275Z,91.40
2017-10-07T09:09:28.738Z,91.20
2017-10-07T09:10:31.203Z,91.10
2017-10-07T09:11:33.679Z,91.50
2017-10-07T09:12:36.140Z,91.60
2017-10-07T09:13:39.397Z,90.30
2017-10-07T09:14:41.880Z,90.40
2017-10-07T09:15:44.347Z,90.30
2017-10-07T09:16:46.810Z,90.20
2017-10-07T09:17:49.303Z,90.70
2017-10-07T09:18:51.849Z,90.60
2017-10-07T09:19:54.308Z,90.00
2017-10-07T09:20:56.781Z,89.60
2017-10-07T09:21:59.255Z,89.80
2017-10-07T09:23:01.715Z,89.80
2017-10-07T09:24:04.267Z,88.50
2017-10-07T09:25:06.724Z,89.10
2017-10-07T09:26:09.191Z,88.60
2017-10-07T09:27:11.705Z,88.60
2017-10-07T09:28:14.990Z,88.10
2017-10-07T09:29:17.455Z,88.10
2017-10-07T09:30:20.266Z,88.30
2017-10-07T09:31:22.728Z,87.40
2017-10-07T09:32:26.012Z,88.70
2017-10-07T09:33:28.537Z,88.70
2017-10-07T09:34:31.009Z,88.50
2017-10-07T09:35:34.232Z,86.60
2017-10-07T09:36:36.749Z,86.70
2017-10-07T09:37:39.226Z,88.90
2017-10-07T09:38:41.711Z,86.70
2017-10-07T09:39:44.189Z,87.00
2017-10-07T09:40:46.663Z,87.90
2017-10-07T09:41:49.124Z,88.10
2017-10-07T09:42:51.613Z,87.40
2017-10-07T09:43:54.062Z,86.70
2017-10-07T09:44:57.346Z,85.60
2017-10-07T09:45:59.843Z,85.50
2017-10-07T09:47:02.317Z,84.20
2017-10-07T09:48:04.797Z,83.80
2017-10-07T09:49:07.269Z,84.20
2017-10-07T09:50:09.743Z,83.80
2017-10-07T09:51:12.206Z,84.40
2017-10-07T09:52:14.718Z,84.90
2017-10-07T09:53:17.200Z,84.30
2017-10-07T09:54:20.429Z,83.90
2017-10-07T09:55:23.670Z,84.40
2017-10-07T09:56:26.125Z,83.70
2017-10-07T09:57:28.630Z,83.50
2017-10-07T09:58:31.855Z,82.40
2017-10-07T09:59:34.361Z,83.10
2017-10-07T10:00:36.815Z,82.70
2017-10-07T10:01:40.042Z,84.20
2017-10-07T10:02:42.534Z,83.70
2017-10-07T10:03:44.996Z,82.70
2017-10-07T10:04:47.451Z,83.00
2017-10-07T10:05:49.928Z,83.50
2017-10-07T10:06:52.382Z,84.00
2017-10-07T10:07:55.702Z,83.80
2017-10-07T10:08:58.177Z,83.80
2017-10-07T10:10:01.363Z,84.10
2017-10-07T10:11:03.844Z,83.60
2017-10-07T10:12:06.326Z,82.40
2017-10-07T10:13:08.840Z,82.30
2017-10-07T10:14:11.316Z,82.10
2017-10-07T10:15:13.780Z,82.30
2017-10-07T10:16:16.251Z,82.00
2017-10-07T10:17:19.480Z,82.90
2017-10-07T10:18:21.967Z,82.80
2017-10-07T10:19:24.468Z,83.50
2017-10-07T10:20:26.931Z,83.20
2017-10-07T10:21:29.391Z,82.00
2017-10-07T10:22:32.619Z,81.30
2017-10-07T10:23:35.113Z,81.30
2017-10-07T10:24:37.571Z,81.40
2017-10-07T10:25:40.799Z,82.40
2017-10-07T10:26:43.258Z,81.70
2017-10-07T10:27:46.482Z,81.90
2017-10-07T10:28:49.072Z,81.80
2017-10-07T10:29:51.535Z,81.50
2017-10-07T10:30:54.762Z,81.60
2017-10-07T10:31:57.226Z,81.50
2017-10-07T10:32:59.723Z,82.70
2017-10-07T10:34:03.010Z,81.20
2017-10-07T10:35:05.503Z,80.40
2017-10-07T10:36:08.766Z,80.70
2017-10-07T10:37:11.246Z,80.60
2017-10-07T10:38:13.714Z,80.90
2017-10-07T10:39:16.255Z,81.50
2017-10-07T10:40:18.724Z,81.70
2017-10-07T10:41:21.235Z,81.50
2017-10-07T10:42:24.481Z,82.00
2017-10-07T10:43:26.964Z,81.70
2017-10-07T10:44:29.463Z,81.50
2017-10-07T10:45:32.714Z,81.50
2017-10-07T10:46:35.942Z,81.50
2017-10-07T10:47:39.195Z,81.80
2017-10-07T10:48:42.440Z,81.60
2017-10-07T10:49:45.745Z,81.60
2017-10-07T10:50:48.206Z,81.60
2017-10-07T10:51:51.452Z,81.10
2017-10-07T10:52:54.697Z,80.70
2017-10-07T10:53:57.239Z,80.60
2017-10-07T10:54:59.731Z,81.60
2017-10-07T10:56:02.993Z,81.80
2017-10-07T10:57:05.486Z,81.60
2017-10-07T10:58:07.957Z,81.60
2017-10-07T10:59:10.428Z,81.20
2017-10-07T11:00:12.944Z,79.50
2017-10-07T11:01:16.167Z,79.60
2017-10-07T11:02:18.632Z,79.60
2017-10-07T11:03:21.090Z,80.30
2017-10-07T11:04:23.534Z,79.30
2017-10-07T11:05:26.040Z,79.70
2017-10-07T11:06:28.517Z,80.00
2017-10-07T11:07:30.986Z,80.40
2017-10-07T11:08:33.444Z,80.60
2017-10-07T11:09:35.914Z,81.10
2017-10-07T11:10:39.193Z,82.30
2017-10-07T11:11:41.707Z,82.20
2017-10-07T11:12:44.175Z,82.10
2017-10-07T11:13:46.638Z,82.90
2017-10-07T11:14:49.863Z,84.00
2017-10-07T11:15:52.347Z,84.00
2017-10-07T11:16:54.838Z,84.70
2017-10-07T11:17:57.318Z,85.40
2017-10-07T11:18:59.776Z,85.20
2017-10-07T11:20:02.999Z,86.40
2017-10-07T11:21:05.507Z,86.40
2017-10-07T11:22:07.982Z,86.40
2017-10-07T11:23:10.452Z,86.70
2017-10-07T11:24:12.914Z,86.50
2017-10-07T11:25:16.170Z,86.40
2017-10-07T11:26:18.659Z,86.30
2017-10-07T11:27:21.125Z,86.30
2017-10-07T11:28:23.586Z,86.50
2017-10-07T11:29:26.055Z,85.50
2017-10-07T11:30:29.289Z,85.60
2017-10-07T11:31:31.792Z,85.60
2017-10-07T11:32:34.261Z,86.30
2017-10-07T11:33:37.486Z,86.20
2017-10-07T11:34:40.734Z,86.50
2017-10-07T11:35:43.980Z,86.40
2017-10-07T11:36:47.356Z,86.20
2017-10-07T11:37:49.820Z,86.10
2017-10-07T11:38:52.289Z,86.20
2017-10-07T11:39:54.744Z,86.30
2017-10-07T11:40:57.233Z,85.60
2017-10-07T11:42:00.520Z,85.90
2017-10-07T11:43:03.012Z,85.90
2017-10-07T11:44:05.481Z,84.30
2017-10-07T11:45:07.945Z,85.30
2017-10-07T11:46:11.169Z,85.90
2017-10-07T11:47:13.678Z,85.80
2017-10-07T11:48:16.144Z,86.30
2017-10-07T11:49:18.624Z,86.40
2017-10-07T11:50:21.847Z,88.60
2017-10-07T11:51:24.342Z,87.90
2017-10-07T11:52:26.888Z,88.30
2017-10-07T11:53:29.355Z,89.00
2017-10-07T11:54:31.810Z,88.90
2017-10-07T11:55:34.335Z,89.00
2017-10-07T11:56:36.795Z,88.30
2017-10-07T11:57:39.299Z,88.90
2017-10-07T11:58:41.759Z,89.50
2017-10-07T11:59:44.219Z,89.00
2017-10-07T12:00:47.495Z,88.80
2017-10-07T12:01:49.966Z,88.70
2017-10-07T12:02:52.477Z,87.20
2017-10-07T12:03:54.943Z,86.60
2017-10-07T12:04:58.154Z,87.10
2017-10-07T12:06:00.621Z,86.90
2017-10-07T12:07:03.137Z,86.50
2017-10-07T12:08:06.391Z,86.00
2017-10-07T12:09:08.899Z,86.00
2017-10-07T12:10:12.167Z,83.00
2017-10-07T12:11:14.799Z,82.90
2017-10-07T12:12:17.260Z,83.60
2017-10-07T12:13:19.784Z,83.20
2017-10-07T12:14:22.234Z,80.90
2017-10-07T12:15:24.718Z,81.80
2017-10-07T12:16:27.188Z,83.40
2017-10-07T12:17:29.749Z,83.60
2017-10-07T12:18:32.253Z,82.70
2017-10-07T12:19:35.503Z,82.20
2017-10-07T12:20:38.767Z,82.80
2017-10-07T12:21:41.280Z,82.70
2017-10-07T12:22:43.791Z,82.10
2017-10-07T12:23:47.028Z,80.70
2017-10-07T12:24:50.334Z,80.90
2017-10-07T12:25:52.795Z,80.90
2017-10-07T12:26:56.071Z,81.30
2017-10-07T12:27:58.539Z,81.30
2017-10-07T12:29:01.058Z,80.00
2017-10-07T12:30:03.528Z,79.80
2017-10-07T12:31:06.002Z,79.00
2017-10-07T12:32:08.504Z,79.30
2017-10-07T12:33:10.981Z,79.60
2017-10-07T12:34:14.253Z,79.60
2017-10-07T12:35:16.731Z,79.40
2017-10-07T12:36:19.203Z,79.20
2017-10-07T12:37:21.683Z,78.80
2017-10-07T12:38:24.146Z,79.60
2017-10-07T12:39:26.629Z,80.30
2017-10-07T12:40:29.143Z,80.50
2017-10-07T12:41:31.626Z,81.50
2017-10-07T12:42:34.101Z,79.20
2017-10-07T12:43:36.571Z,79.90
2017-10-07T12:44:39.123Z,80.70
2017-10-07T12:45:41.647Z,80.60
2017-10-07T12:46:44.114Z,81.40
2017-10-07T12:47:46.621Z,82.10
2017-10-07T12:48:49.094Z,83.00
2017-10-07T12:49:52.323Z,84.20
2017-10-07T12:50:55.591Z,84.80
2017-10-07T12:51:58.108Z,84.60
2017-10-07T12:53:00.580Z,85.80
2017-10-07T12:54:03.043Z,86.20
2017-10-07T12:55:06.452Z,87.50
2017-10-07T12:56:09.685Z,87.70
2017-10-07T12:57:12.159Z,87.70
2017-10-07T12:58:15.367Z,87.70
2017-10-07T12:59:17.835Z,87.50
2017-10-07T13:00:20.342Z,88.10
2017-10-07T13:01:23.571Z,89.00
2017-10-07T13:02:26.037Z,88.20
2017-10-07T13:03:28.500Z,87.80
2017-10-07T13:04:30.992Z,88.40
2017-10-07T13:05:33.520Z,88.90
2017-10-07T13:06:35.984Z,87.20
2017-10-07T13:07:38.501Z,86.90
2017-10-07T13:08:40.979Z,86.40
2017-10-07T13:09:43.478Z,86.50
2017-10-07T13:10:45.943Z,86.30
2017-10-07T13:11:48.415Z,86.90
2017-10-07T13:12:50.891Z,85.30
2017-10-07T13:13:53.407Z,85.90
2017-10-07T13:14:55.882Z,85.70
2017-10-07T13:15:58.352Z,86.00
2017-10-07T13:17:00.846Z,86.60
2017-10-07T13:18:03.304Z,84.80
2017-10-07T13:19:05.779Z,85.10
2017-10-07T13:20:08.256Z,84.90
2017-10-07T13:21:10.717Z,85.80
2017-10-07T13:22:13.226Z,84.80
2017-10-07T13:23:15.727Z,83.70
2017-10-07T13:24:18.214Z,84.20
2017-10-07T13:25:20.683Z,84.10
2017-10-07T13:26:23.151Z,85.60
2017-10-07T13:27:27.216Z,83.80
2017-10-07T13:28:29.693Z,84.20